sensor_id;sensor_type;location;lat;lon;timestamp;pressure;altitude;pressure_sealevel;temperature
67501;BMP180;54349;52.528;19.760;2023-01-28T00:02:04;101421.60;;;22.40
67501;BMP180;54349;52.528;19.760;2023-01-28T00:04:32;101422.60;;;22.48
67501;BMP180;54349;52.528;19.760;2023-01-28T00:07:01;101422.20;;;22.48
67501;BMP180;54349;52.528;19.760;2023-01-28T00:09:29;101422.80;;;22.50
67501;BMP180;54349;52.528;19.760;2023-01-28T00:11:58;101421.00;;;22.50
67501;BMP180;54349;52.528;19.760;2023-01-28T00:14:26;101416.40;;;22.50
67501;BMP180;54349;52.528;19.760;2023-01-28T00:16:54;101419.20;;;22.50
67501;BMP180;54349;52.528;19.760;2023-01-28T00:19:23;101420.20;;;22.40
67501;BMP180;54349;52.528;19.760;2023-01-28T00:21:51;101420.00;;;22.40
67501;BMP180;54349;52.528;19.760;2023-01-28T00:24:19;101414.00;;;22.40
67501;BMP180;54349;52.528;19.760;2023-01-28T00:26:48;101413.20;;;22.36
67501;BMP180;54349;52.528;19.760;2023-01-28T00:29:16;101416.20;;;22.30
67501;BMP180;54349;52.528;19.760;2023-01-28T00:31:44;101423.20;;;22.30
67501;BMP180;54349;52.528;19.760;2023-01-28T00:34:13;101420.20;;;22.26
67501;BMP180;54349;52.528;19.760;2023-01-28T00:36:41;101423.60;;;22.20
67501;BMP180;54349;52.528;19.760;2023-01-28T00:39:13;101423.20;;;22.20
67501;BMP180;54349;52.528;19.760;2023-01-28T00:41:42;101420.60;;;22.18
67501;BMP180;54349;52.528;19.760;2023-01-28T00:44:10;101415.80;;;22.10
67501;BMP180;54349;52.528;19.760;2023-01-28T00:46:38;101418.20;;;22.10
67501;BMP180;54349;52.528;19.760;2023-01-28T00:49:09;101412.40;;;22.10
67501;BMP180;54349;52.528;19.760;2023-01-28T00:51:37;101419.20;;;22.00
67501;BMP180;54349;52.528;19.760;2023-01-28T00:54:06;101415.40;;;22.00
67501;BMP180;54349;52.528;19.760;2023-01-28T00:56:34;101411.60;;;22.00
67501;BMP180;54349;52.528;19.760;2023-01-28T00:59:05;101412.20;;;21.90
67501;BMP180;54349;52.528;19.760;2023-01-28T01:01:33;101406.60;;;21.90
67501;BMP180;54349;52.528;19.760;2023-01-28T01:04:02;101406.20;;;21.90
67501;BMP180;54349;52.528;19.760;2023-01-28T01:06:35;101406.80;;;21.80
67501;BMP180;54349;52.528;19.760;2023-01-28T01:09:07;101404.20;;;21.80
67501;BMP180;54349;52.528;19.760;2023-01-28T01:11:37;101402.80;;;21.80
67501;BMP180;54349;52.528;19.760;2023-01-28T01:14:05;101403.40;;;21.70
67501;BMP180;54349;52.528;19.760;2023-01-28T01:16:34;101399.20;;;21.70
67501;BMP180;54349;52.528;19.760;2023-01-28T01:19:03;101405.20;;;21.70
67501;BMP180;54349;52.528;19.760;2023-01-28T01:21:31;101405.40;;;21.66
67501;BMP180;54349;52.528;19.760;2023-01-28T01:24:00;101399.60;;;21.60
67501;BMP180;54349;52.528;19.760;2023-01-28T01:26:28;101399.00;;;21.60
67501;BMP180;54349;52.528;19.760;2023-01-28T01:28:57;101400.20;;;21.60
67501;BMP180;54349;52.528;19.760;2023-01-28T01:31:25;101396.60;;;21.50
67501;BMP180;54349;52.528;19.760;2023-01-28T01:33:54;101402.60;;;21.50
67501;BMP180;54349;52.528;19.760;2023-01-28T01:36:22;101403.00;;;21.50
67501;BMP180;54349;52.528;19.760;2023-01-28T01:38:54;101401.20;;;21.44
67501;BMP180;54349;52.528;19.760;2023-01-28T01:41:30;101406.80;;;21.40
67501;BMP180;54349;52.528;19.760;2023-01-28T01:44:04;101403.60;;;21.40
67501;BMP180;54349;52.528;19.760;2023-01-28T01:46:49;101402.60;;;21.40
67501;BMP180;54349;52.528;19.760;2023-01-28T01:49:27;101400.00;;;21.40
67501;BMP180;54349;52.528;19.760;2023-01-28T01:52:11;101401.60;;;21.40
67501;BMP180;54349;52.528;19.760;2023-01-28T01:54:46;101405.80;;;21.30
67501;BMP180;54349;52.528;19.760;2023-01-28T01:57:23;101406.00;;;21.30
67501;BMP180;54349;52.528;19.760;2023-01-28T01:59:56;101399.60;;;21.30
67501;BMP180;54349;52.528;19.760;2023-01-28T02:02:45;101401.40;;;21.30
67501;BMP180;54349;52.528;19.760;2023-01-28T02:05:17;101400.40;;;21.20
67501;BMP180;54349;52.528;19.760;2023-01-28T02:07:50;101399.80;;;21.20
67501;BMP180;54349;52.528;19.760;2023-01-28T02:10:18;101405.00;;;21.20
67501;BMP180;54349;52.528;19.760;2023-01-28T02:12:55;101402.80;;;21.16
67501;BMP180;54349;52.528;19.760;2023-01-28T02:15:26;101403.60;;;21.10
67501;BMP180;54349;52.528;19.760;2023-01-28T02:17:56;101406.60;;;21.10
67501;BMP180;54349;52.528;19.760;2023-01-28T02:23:47;101412.40;;;21.08
67501;BMP180;54349;52.528;19.760;2023-01-28T02:29:59;101415.20;;;21.00
67501;BMP180;54349;52.528;19.760;2023-01-28T02:32:42;101416.60;;;21.00
67501;BMP180;54349;52.528;19.760;2023-01-28T02:38:00;101413.20;;;20.90
67501;BMP180;54349;52.528;19.760;2023-01-28T02:40:37;101413.40;;;20.90
67501;BMP180;54349;52.528;19.760;2023-01-28T02:43:45;101413.60;;;20.90
67501;BMP180;54349;52.528;19.760;2023-01-28T02:46:21;101416.60;;;20.90
67501;BMP180;54349;52.528;19.760;2023-01-28T02:49:17;101409.80;;;20.82
67501;BMP180;54349;52.528;19.760;2023-01-28T03:06:18;101417.80;;;20.70
67501;BMP180;54349;52.528;19.760;2023-01-28T03:08:56;101409.80;;;20.70
67501;BMP180;54349;52.528;19.760;2023-01-28T03:11:57;101408.00;;;20.70
67501;BMP180;54349;52.528;19.760;2023-01-28T03:14:59;101405.20;;;20.60
67501;BMP180;54349;52.528;19.760;2023-01-28T03:21:11;101410.60;;;20.60
67501;BMP180;54349;52.528;19.760;2023-01-28T03:24:07;101414.60;;;20.60
67501;BMP180;54349;52.528;19.760;2023-01-28T03:27:02;101411.80;;;20.52
67501;BMP180;54349;52.528;19.760;2023-01-28T03:30:02;101411.00;;;20.50
67501;BMP180;54349;52.528;19.760;2023-01-28T03:32:51;101415.00;;;20.50
67501;BMP180;54349;52.528;19.760;2023-01-28T03:35:40;101406.20;;;20.50
67501;BMP180;54349;52.528;19.760;2023-01-28T03:38:28;101407.40;;;20.50
67501;BMP180;54349;52.528;19.760;2023-01-28T03:41:02;101407.00;;;20.50
67501;BMP180;54349;52.528;19.760;2023-01-28T03:43:31;101409.20;;;20.42
67501;BMP180;54349;52.528;19.760;2023-01-28T03:46:02;101407.80;;;20.40
67501;BMP180;54349;52.528;19.760;2023-01-28T03:48:30;101403.00;;;20.40
67501;BMP180;54349;52.528;19.760;2023-01-28T03:51:00;101402.00;;;20.40
67501;BMP180;54349;52.528;19.760;2023-01-28T03:53:29;101408.20;;;20.40
67501;BMP180;54349;52.528;19.760;2023-01-28T03:55:58;101406.40;;;20.40
67501;BMP180;54349;52.528;19.760;2023-01-28T03:58:26;101411.20;;;20.40
67501;BMP180;54349;52.528;19.760;2023-01-28T04:01:13;101409.40;;;20.40
67501;BMP180;54349;52.528;19.760;2023-01-28T04:03:42;101411.60;;;20.40
67501;BMP180;54349;52.528;19.760;2023-01-28T04:06:14;101411.00;;;20.40
67501;BMP180;54349;52.528;19.760;2023-01-28T04:09:05;101416.60;;;20.40
67501;BMP180;54349;52.528;19.760;2023-01-28T04:11:54;101417.60;;;20.32
67501;BMP180;54349;52.528;19.760;2023-01-28T04:14:28;101425.80;;;20.30
67501;BMP180;54349;52.528;19.760;2023-01-28T04:17:18;101426.60;;;20.30
67501;BMP180;54349;52.528;19.760;2023-01-28T04:19:47;101423.00;;;20.30
67501;BMP180;54349;52.528;19.760;2023-01-28T04:22:16;101422.80;;;20.24
67501;BMP180;54349;52.528;19.760;2023-01-28T04:24:44;101423.00;;;20.20
67501;BMP180;54349;52.528;19.760;2023-01-28T04:27:12;101424.00;;;20.20
67501;BMP180;54349;52.528;19.760;2023-01-28T04:29:40;101424.80;;;20.20
67501;BMP180;54349;52.528;19.760;2023-01-28T04:32:28;101417.40;;;20.20
67501;BMP180;54349;52.528;19.760;2023-01-28T04:35:10;101419.40;;;20.14
67501;BMP180;54349;52.528;19.760;2023-01-28T04:37:54;101413.80;;;20.10
67501;BMP180;54349;52.528;19.760;2023-01-28T04:40:30;101409.80;;;20.10
67501;BMP180;54349;52.528;19.760;2023-01-28T04:43:04;101415.00;;;20.10
67501;BMP180;54349;52.528;19.760;2023-01-28T04:45:46;101417.00;;;20.10
67501;BMP180;54349;52.528;19.760;2023-01-28T04:48:53;101418.20;;;20.10
67501;BMP180;54349;52.528;19.760;2023-01-28T04:51:33;101423.60;;;20.10
67501;BMP180;54349;52.528;19.760;2023-01-28T04:54:19;101420.40;;;20.20
67501;BMP180;54349;52.528;19.760;2023-01-28T04:56:49;101421.00;;;20.30
67501;BMP180;54349;52.528;19.760;2023-01-28T04:59:17;101418.40;;;20.40
67501;BMP180;54349;52.528;19.760;2023-01-28T05:01:46;101423.60;;;20.50
67501;BMP180;54349;52.528;19.760;2023-01-28T05:04:15;101425.60;;;20.60
67501;BMP180;54349;52.528;19.760;2023-01-28T05:06:44;101427.60;;;20.72
67501;BMP180;54349;52.528;19.760;2023-01-28T05:09:18;101429.20;;;20.88
67501;BMP180;54349;52.528;19.760;2023-01-28T05:11:48;101422.20;;;21.00
67501;BMP180;54349;52.528;19.760;2023-01-28T05:14:16;101425.60;;;21.10
67501;BMP180;54349;52.528;19.760;2023-01-28T05:16:49;101421.60;;;21.14
67501;BMP180;54349;52.528;19.760;2023-01-28T05:19:18;101419.60;;;21.20
67501;BMP180;54349;52.528;19.760;2023-01-28T05:21:46;101420.00;;;21.30
67501;BMP180;54349;52.528;19.760;2023-01-28T05:24:23;101425.80;;;21.40
67501;BMP180;54349;52.528;19.760;2023-01-28T05:26:53;101428.40;;;21.40
67501;BMP180;54349;52.528;19.760;2023-01-28T05:29:21;101430.00;;;21.50
67501;BMP180;54349;52.528;19.760;2023-01-28T05:31:51;101434.20;;;21.52
67501;BMP180;54349;52.528;19.760;2023-01-28T05:34:19;101434.20;;;21.60
67501;BMP180;54349;52.528;19.760;2023-01-28T05:36:47;101438.60;;;21.62
67501;BMP180;54349;52.528;19.760;2023-01-28T05:39:29;101444.20;;;21.70
67501;BMP180;54349;52.528;19.760;2023-01-28T05:41:59;101442.40;;;21.70
67501;BMP180;54349;52.528;19.760;2023-01-28T05:44:27;101438.80;;;21.76
67501;BMP180;54349;52.528;19.760;2023-01-28T05:47:18;101439.20;;;21.80
67501;BMP180;54349;52.528;19.760;2023-01-28T05:49:46;101443.20;;;21.80
67501;BMP180;54349;52.528;19.760;2023-01-28T05:52:33;101446.80;;;21.80
67501;BMP180;54349;52.528;19.760;2023-01-28T05:55:02;101445.80;;;21.90
67501;BMP180;54349;52.528;19.760;2023-01-28T05:57:31;101451.20;;;21.90
67501;BMP180;54349;52.528;19.760;2023-01-28T05:59:59;101450.40;;;21.90
67501;BMP180;54349;52.528;19.760;2023-01-28T06:02:28;101450.80;;;21.92
67501;BMP180;54349;52.528;19.760;2023-01-28T06:04:59;101456.80;;;22.00
67501;BMP180;54349;52.528;19.760;2023-01-28T06:07:28;101461.60;;;22.00
67501;BMP180;54349;52.528;19.760;2023-01-28T06:09:57;101464.40;;;22.00
67501;BMP180;54349;52.528;19.760;2023-01-28T06:12:26;101460.80;;;22.02
67501;BMP180;54349;52.528;19.760;2023-01-28T06:15:26;101461.00;;;22.10
67501;BMP180;54349;52.528;19.760;2023-01-28T06:18:18;101463.20;;;22.10
67501;BMP180;54349;52.528;19.760;2023-01-28T06:20:52;101463.20;;;22.10
67501;BMP180;54349;52.528;19.760;2023-01-28T06:23:20;101469.60;;;22.20
67501;BMP180;54349;52.528;19.760;2023-01-28T06:25:55;101470.60;;;22.20
67501;BMP180;54349;52.528;19.760;2023-01-28T06:28:25;101474.20;;;22.20
67501;BMP180;54349;52.528;19.760;2023-01-28T06:30:53;101479.60;;;22.20
67501;BMP180;54349;52.528;19.760;2023-01-28T06:33:22;101480.60;;;22.30
67501;BMP180;54349;52.528;19.760;2023-01-28T06:35:51;101487.80;;;22.30
67501;BMP180;54349;52.528;19.760;2023-01-28T06:38:19;101486.20;;;22.30
67501;BMP180;54349;52.528;19.760;2023-01-28T06:40:53;101486.40;;;22.30
67501;BMP180;54349;52.528;19.760;2023-01-28T06:43:23;101487.60;;;22.30
67501;BMP180;54349;52.528;19.760;2023-01-28T06:45:57;101495.60;;;22.30
67501;BMP180;54349;52.528;19.760;2023-01-28T06:48:26;101499.80;;;22.30
67501;BMP180;54349;52.528;19.760;2023-01-28T06:50:55;101498.20;;;22.30
67501;BMP180;54349;52.528;19.760;2023-01-28T06:53:23;101495.20;;;22.30
67501;BMP180;54349;52.528;19.760;2023-01-28T06:55:51;101496.00;;;22.30
67501;BMP180;54349;52.528;19.760;2023-01-28T06:58:19;101497.40;;;22.30
67501;BMP180;54349;52.528;19.760;2023-01-28T07:00:47;101497.60;;;22.34
67501;BMP180;54349;52.528;19.760;2023-01-28T07:03:15;101503.00;;;22.32
67501;BMP180;54349;52.528;19.760;2023-01-28T07:05:43;101504.20;;;22.30
67501;BMP180;54349;52.528;19.760;2023-01-28T07:08:11;101501.60;;;22.30
67501;BMP180;54349;52.528;19.760;2023-01-28T07:10:40;101501.80;;;22.30
67501;BMP180;54349;52.528;19.760;2023-01-28T07:13:09;101505.20;;;22.30
67501;BMP180;54349;52.528;19.760;2023-01-28T07:15:37;101507.40;;;22.30
67501;BMP180;54349;52.528;19.760;2023-01-28T07:18:06;101508.80;;;22.30
67501;BMP180;54349;52.528;19.760;2023-01-28T07:20:34;101507.00;;;22.30
67501;BMP180;54349;52.528;19.760;2023-01-28T07:23:03;101508.00;;;22.30
67501;BMP180;54349;52.528;19.760;2023-01-28T07:25:32;101508.80;;;22.30
67501;BMP180;54349;52.528;19.760;2023-01-28T07:28:00;101508.60;;;22.26
67501;BMP180;54349;52.528;19.760;2023-01-28T07:30:28;101515.40;;;22.20
67501;BMP180;54349;52.528;19.760;2023-01-28T07:32:58;101515.20;;;22.20
67501;BMP180;54349;52.528;19.760;2023-01-28T07:35:27;101513.40;;;22.20
67501;BMP180;54349;52.528;19.760;2023-01-28T07:37:58;101519.40;;;22.24
67501;BMP180;54349;52.528;19.760;2023-01-28T07:40:27;101523.20;;;22.20
67501;BMP180;54349;52.528;19.760;2023-01-28T07:42:56;101525.80;;;22.20
67501;BMP180;54349;52.528;19.760;2023-01-28T07:45:25;101525.80;;;22.20
67501;BMP180;54349;52.528;19.760;2023-01-28T07:48:03;101522.80;;;22.20
67501;BMP180;54349;52.528;19.760;2023-01-28T07:50:35;101523.00;;;22.20
67501;BMP180;54349;52.528;19.760;2023-01-28T07:53:07;101521.00;;;22.20
67501;BMP180;54349;52.528;19.760;2023-01-28T07:55:37;101519.80;;;22.20
67501;BMP180;54349;52.528;19.760;2023-01-28T07:58:07;101518.80;;;22.20
67501;BMP180;54349;52.528;19.760;2023-01-28T08:00:38;101513.40;;;22.20
67501;BMP180;54349;52.528;19.760;2023-01-28T08:03:13;101517.20;;;22.24
67501;BMP180;54349;52.528;19.760;2023-01-28T08:05:48;101515.80;;;22.30
67501;BMP180;54349;52.528;19.760;2023-01-28T08:08:17;101514.80;;;22.22
67501;BMP180;54349;52.528;19.760;2023-01-28T08:10:47;101513.60;;;22.24
67501;BMP180;54349;52.528;19.760;2023-01-28T08:13:17;101513.60;;;22.30
67501;BMP180;54349;52.528;19.760;2023-01-28T08:15:46;101515.00;;;22.20
67501;BMP180;54349;52.528;19.760;2023-01-28T08:18:16;101516.00;;;22.28
67501;BMP180;54349;52.528;19.760;2023-01-28T08:20:44;101517.80;;;22.28
67501;BMP180;54349;52.528;19.760;2023-01-28T08:23:17;101519.20;;;22.30
67501;BMP180;54349;52.528;19.760;2023-01-28T08:25:47;101518.20;;;22.30
67501;BMP180;54349;52.528;19.760;2023-01-28T08:28:16;101518.20;;;22.30
67501;BMP180;54349;52.528;19.760;2023-01-28T08:30:45;101519.20;;;22.30
67501;BMP180;54349;52.528;19.760;2023-01-28T08:33:15;101522.00;;;22.30
67501;BMP180;54349;52.528;19.760;2023-01-28T08:35:44;101525.40;;;22.30
67501;BMP180;54349;52.528;19.760;2023-01-28T08:38:13;101531.20;;;22.30
67501;BMP180;54349;52.528;19.760;2023-01-28T08:40:46;101529.20;;;22.30
67501;BMP180;54349;52.528;19.760;2023-01-28T08:43:14;101531.20;;;22.30
67501;BMP180;54349;52.528;19.760;2023-01-28T08:45:42;101528.20;;;22.30
67501;BMP180;54349;52.528;19.760;2023-01-28T08:48:15;101525.40;;;22.30
67501;BMP180;54349;52.528;19.760;2023-01-28T08:50:44;101524.60;;;22.30
67501;BMP180;54349;52.528;19.760;2023-01-28T08:53:18;101526.80;;;22.30
67501;BMP180;54349;52.528;19.760;2023-01-28T08:55:47;101524.80;;;22.30
67501;BMP180;54349;52.528;19.760;2023-01-28T08:58:17;101522.80;;;22.30
67501;BMP180;54349;52.528;19.760;2023-01-28T09:00:46;101524.00;;;22.30
67501;BMP180;54349;52.528;19.760;2023-01-28T09:03:16;101527.00;;;22.30
67501;BMP180;54349;52.528;19.760;2023-01-28T09:05:44;101531.60;;;22.32
67501;BMP180;54349;52.528;19.760;2023-01-28T09:08:14;101535.60;;;22.36
67501;BMP180;54349;52.528;19.760;2023-01-28T09:10:42;101534.40;;;22.38
67501;BMP180;54349;52.528;19.760;2023-01-28T09:13:14;101536.00;;;22.40
67501;BMP180;54349;52.528;19.760;2023-01-28T09:15:42;101541.00;;;22.34
67501;BMP180;54349;52.528;19.760;2023-01-28T09:18:11;101550.00;;;22.30
67501;BMP180;54349;52.528;19.760;2023-01-28T09:20:39;101551.40;;;22.30
67501;BMP180;54349;52.528;19.760;2023-01-28T09:23:08;101547.60;;;22.30
67501;BMP180;54349;52.528;19.760;2023-01-28T09:25:36;101552.60;;;22.30
67501;BMP180;54349;52.528;19.760;2023-01-28T09:28:05;101559.20;;;22.30
67501;BMP180;54349;52.528;19.760;2023-01-28T09:30:34;101561.80;;;22.30
67501;BMP180;54349;52.528;19.760;2023-01-28T09:33:05;101561.60;;;22.30
67501;BMP180;54349;52.528;19.760;2023-01-28T09:35:34;101557.40;;;22.30
67501;BMP180;54349;52.528;19.760;2023-01-28T09:38:04;101558.00;;;22.30
67501;BMP180;54349;52.528;19.760;2023-01-28T09:40:36;101554.20;;;22.30
67501;BMP180;54349;52.528;19.760;2023-01-28T09:45:59;101549.40;;;22.30
67501;BMP180;54349;52.528;19.760;2023-01-28T09:48:37;101546.80;;;22.30
67501;BMP180;54349;52.528;19.760;2023-01-28T09:51:24;101549.00;;;22.30
67501;BMP180;54349;52.528;19.760;2023-01-28T09:53:59;101555.20;;;22.30
67501;BMP180;54349;52.528;19.760;2023-01-28T09:56:40;101541.40;;;22.30
67501;BMP180;54349;52.528;19.760;2023-01-28T09:59:20;101546.40;;;22.30
67501;BMP180;54349;52.528;19.760;2023-01-28T10:02:10;101539.60;;;22.30
67501;BMP180;54349;52.528;19.760;2023-01-28T10:04:55;101540.40;;;22.30
67501;BMP180;54349;52.528;19.760;2023-01-28T10:10:55;101532.40;;;22.30
67501;BMP180;54349;52.528;19.760;2023-01-28T10:16:41;101527.80;;;22.30
67501;BMP180;54349;52.528;19.760;2023-01-28T10:19:19;101528.60;;;22.30
67501;BMP180;54349;52.528;19.760;2023-01-28T10:22:06;101525.00;;;22.30
67501;BMP180;54349;52.528;19.760;2023-01-28T10:24:40;101523.40;;;22.30
67501;BMP180;54349;52.528;19.760;2023-01-28T10:27:19;101522.00;;;22.30
67501;BMP180;54349;52.528;19.760;2023-01-28T10:29:49;101519.20;;;22.30
67501;BMP180;54349;52.528;19.760;2023-01-28T10:32:29;101522.60;;;22.20
67501;BMP180;54349;52.528;19.760;2023-01-28T10:34:57;101517.80;;;22.10
67501;BMP180;54349;52.528;19.760;2023-01-28T10:37:34;101508.80;;;22.10
67501;BMP180;54349;52.528;19.760;2023-01-28T10:40:04;101514.00;;;22.10
67501;BMP180;54349;52.528;19.760;2023-01-28T10:42:35;101514.00;;;22.00
67501;BMP180;54349;52.528;19.760;2023-01-28T10:45:29;101517.60;;;22.00
67501;BMP180;54349;52.528;19.760;2023-01-28T10:48:06;101512.40;;;22.00
67501;BMP180;54349;52.528;19.760;2023-01-28T10:50:36;101512.20;;;22.00
67501;BMP180;54349;52.528;19.760;2023-01-28T10:53:05;101516.40;;;22.00
67501;BMP180;54349;52.528;19.760;2023-01-28T10:58:24;101517.80;;;22.00
67501;BMP180;54349;52.528;19.760;2023-01-28T11:00:59;101520.60;;;22.00
67501;BMP180;54349;52.528;19.760;2023-01-28T11:03:29;101521.00;;;22.00
67501;BMP180;54349;52.528;19.760;2023-01-28T11:06:02;101515.60;;;22.00
67501;BMP180;54349;52.528;19.760;2023-01-28T11:08:43;101510.40;;;22.00
67501;BMP180;54349;52.528;19.760;2023-01-28T11:11:14;101510.80;;;22.00
67501;BMP180;54349;52.528;19.760;2023-01-28T11:13:51;101512.80;;;22.08
67501;BMP180;54349;52.528;19.760;2023-01-28T11:16:24;101508.20;;;22.10
67501;BMP180;54349;52.528;19.760;2023-01-28T11:19:03;101506.40;;;22.10
67501;BMP180;54349;52.528;19.760;2023-01-28T11:21:34;101513.60;;;22.10
67501;BMP180;54349;52.528;19.760;2023-01-28T11:24:13;101517.80;;;22.16
67501;BMP180;54349;52.528;19.760;2023-01-28T11:26:46;101517.60;;;22.20
67501;BMP180;54349;52.528;19.760;2023-01-28T11:29:33;101514.20;;;22.20
67501;BMP180;54349;52.528;19.760;2023-01-28T11:32:19;101517.20;;;22.20
67501;BMP180;54349;52.528;19.760;2023-01-28T11:34:56;101522.80;;;22.20
67501;BMP180;54349;52.528;19.760;2023-01-28T11:37:27;101519.60;;;22.20
67501;BMP180;54349;52.528;19.760;2023-01-28T11:40:17;101520.80;;;22.20
67501;BMP180;54349;52.528;19.760;2023-01-28T11:42:50;101510.00;;;22.20
67501;BMP180;54349;52.528;19.760;2023-01-28T11:45:36;101509.20;;;22.10
67501;BMP180;54349;52.528;19.760;2023-01-28T11:48:44;101507.00;;;22.10
67501;BMP180;54349;52.528;19.760;2023-01-28T11:51:52;101508.00;;;22.00
67501;BMP180;54349;52.528;19.760;2023-01-28T11:54:44;101510.60;;;22.00
67501;BMP180;54349;52.528;19.760;2023-01-28T11:57:31;101499.00;;;22.02
67501;BMP180;54349;52.528;19.760;2023-01-28T12:09:54;101496.40;;;21.90
67501;BMP180;54349;52.528;19.760;2023-01-28T12:16:09;101495.60;;;21.82
67501;BMP180;54349;52.528;19.760;2023-01-28T12:28:34;101486.00;;;21.70
67501;BMP180;54349;52.528;19.760;2023-01-28T12:31:53;101484.40;;;21.70
67501;BMP180;54349;52.528;19.760;2023-01-28T12:34:47;101481.60;;;21.70
67501;BMP180;54349;52.528;19.760;2023-01-28T12:37:44;101490.00;;;21.80
67501;BMP180;54349;52.528;19.760;2023-01-28T12:40:56;101489.20;;;21.80
67501;BMP180;54349;52.528;19.760;2023-01-28T12:43:44;101485.60;;;21.80
67501;BMP180;54349;52.528;19.760;2023-01-28T12:46:46;101482.80;;;21.70
67501;BMP180;54349;52.528;19.760;2023-01-28T12:49:32;101483.40;;;21.70
67501;BMP180;54349;52.528;19.760;2023-01-28T12:52:28;101488.80;;;21.70
67501;BMP180;54349;52.528;19.760;2023-01-28T12:55:21;101495.40;;;21.70
67501;BMP180;54349;52.528;19.760;2023-01-28T12:57:56;101494.60;;;21.70
67501;BMP180;54349;52.528;19.760;2023-01-28T13:00:35;101491.80;;;21.70
67501;BMP180;54349;52.528;19.760;2023-01-28T13:03:34;101494.80;;;21.70
67501;BMP180;54349;52.528;19.760;2023-01-28T13:06:14;101494.00;;;21.70
67501;BMP180;54349;52.528;19.760;2023-01-28T13:08:46;101485.40;;;21.70
67501;BMP180;54349;52.528;19.760;2023-01-28T13:11:17;101491.80;;;21.70
67501;BMP180;54349;52.528;19.760;2023-01-28T13:13:46;101491.80;;;21.70
67501;BMP180;54349;52.528;19.760;2023-01-28T13:16:15;101495.60;;;21.70
67501;BMP180;54349;52.528;19.760;2023-01-28T13:18:45;101490.00;;;21.70
67501;BMP180;54349;52.528;19.760;2023-01-28T13:24:20;101488.40;;;21.70
67501;BMP180;54349;52.528;19.760;2023-01-28T13:26:54;101487.40;;;21.70
67501;BMP180;54349;52.528;19.760;2023-01-28T13:31:59;101493.80;;;21.70
67501;BMP180;54349;52.528;19.760;2023-01-28T13:34:40;101490.40;;;21.70
67501;BMP180;54349;52.528;19.760;2023-01-28T13:37:42;101486.60;;;21.80
67501;BMP180;54349;52.528;19.760;2023-01-28T13:42:41;101493.00;;;21.88
67501;BMP180;54349;52.528;19.760;2023-01-28T13:45:21;101483.80;;;21.80
67501;BMP180;54349;52.528;19.760;2023-01-28T13:47:59;101483.00;;;21.80
67501;BMP180;54349;52.528;19.760;2023-01-28T13:50:41;101489.60;;;21.80
67501;BMP180;54349;52.528;19.760;2023-01-28T13:53:47;101492.40;;;21.82
67501;BMP180;54349;52.528;19.760;2023-01-28T13:56:25;101494.80;;;21.88
67501;BMP180;54349;52.528;19.760;2023-01-28T13:59:22;101497.00;;;21.88
67501;BMP180;54349;52.528;19.760;2023-01-28T14:01:58;101489.40;;;21.90
67501;BMP180;54349;52.528;19.760;2023-01-28T14:07:43;101486.40;;;21.90
67501;BMP180;54349;52.528;19.760;2023-01-28T14:16:55;101487.00;;;21.80
67501;BMP180;54349;52.528;19.760;2023-01-28T14:19:33;101483.20;;;21.70
67501;BMP180;54349;52.528;19.760;2023-01-28T14:22:09;101487.60;;;21.68
67501;BMP180;54349;52.528;19.760;2023-01-28T14:24:40;101487.80;;;21.60
67501;BMP180;54349;52.528;19.760;2023-01-28T14:32:34;101486.20;;;21.54
67501;BMP180;54349;52.528;19.760;2023-01-28T14:35:08;101489.00;;;21.50
67501;BMP180;54349;52.528;19.760;2023-01-28T14:37:37;101491.80;;;21.50
67501;BMP180;54349;52.528;19.760;2023-01-28T14:40:13;101496.60;;;21.50
67501;BMP180;54349;52.528;19.760;2023-01-28T14:42:47;101499.20;;;21.50
67501;BMP180;54349;52.528;19.760;2023-01-28T14:51:32;101501.40;;;21.60
67501;BMP180;54349;52.528;19.760;2023-01-28T14:54:44;101495.60;;;21.60
67501;BMP180;54349;52.528;19.760;2023-01-28T14:57:51;101499.80;;;21.60
67501;BMP180;54349;52.528;19.760;2023-01-28T15:00:31;101495.80;;;21.70
67501;BMP180;54349;52.528;19.760;2023-01-28T15:03:19;101494.80;;;21.66
67501;BMP180;54349;52.528;19.760;2023-01-28T15:06:23;101503.20;;;21.70
67501;BMP180;54349;52.528;19.760;2023-01-28T15:08:52;101500.40;;;21.70
67501;BMP180;54349;52.528;19.760;2023-01-28T15:11:25;101498.20;;;21.70
67501;BMP180;54349;52.528;19.760;2023-01-28T15:13:59;101497.00;;;21.70
67501;BMP180;54349;52.528;19.760;2023-01-28T15:16:28;101496.80;;;21.72
67501;BMP180;54349;52.528;19.760;2023-01-28T15:19:00;101496.00;;;21.78
67501;BMP180;54349;52.528;19.760;2023-01-28T15:21:36;101496.80;;;21.80
67501;BMP180;54349;52.528;19.760;2023-01-28T15:24:13;101501.60;;;21.80
67501;BMP180;54349;52.528;19.760;2023-01-28T15:26:46;101502.40;;;21.80
67501;BMP180;54349;52.528;19.760;2023-01-28T15:29:32;101498.40;;;21.80
67501;BMP180;54349;52.528;19.760;2023-01-28T15:32:02;101495.80;;;21.70
67501;BMP180;54349;52.528;19.760;2023-01-28T15:34:32;101501.00;;;21.70
67501;BMP180;54349;52.528;19.760;2023-01-28T15:37:00;101504.80;;;21.80
67501;BMP180;54349;52.528;19.760;2023-01-28T15:39:29;101497.60;;;21.80
67501;BMP180;54349;52.528;19.760;2023-01-28T15:42:03;101506.20;;;21.90
67501;BMP180;54349;52.528;19.760;2023-01-28T15:44:43;101510.20;;;21.90
67501;BMP180;54349;52.528;19.760;2023-01-28T15:47:30;101516.60;;;22.00
67501;BMP180;54349;52.528;19.760;2023-01-28T15:50:04;101513.80;;;22.00
67501;BMP180;54349;52.528;19.760;2023-01-28T15:52:40;101510.20;;;22.00
67501;BMP180;54349;52.528;19.760;2023-01-28T15:55:39;101519.80;;;21.96
67501;BMP180;54349;52.528;19.760;2023-01-28T15:58:29;101517.20;;;21.90
67501;BMP180;54349;52.528;19.760;2023-01-28T16:01:14;101512.20;;;21.90
67501;BMP180;54349;52.528;19.760;2023-01-28T16:03:45;101513.80;;;21.90